sensor_id;sensor_type;location;lat;lon;timestamp;temperature;humidity
16814;DHT22;8524;57.650;11.926;2023-05-08T00:00:37;5.00;99.90
16814;DHT22;8524;57.650;11.926;2023-05-08T00:03:04;5.10;99.90
16814;DHT22;8524;57.650;11.926;2023-05-08T00:05:31;5.00;99.90
16814;DHT22;8524;57.650;11.926;2023-05-08T00:07:58;4.90;99.90
16814;DHT22;8524;57.650;11.926;2023-05-08T00:10:28;5.00;99.90
16814;DHT22;8524;57.650;11.926;2023-05-08T00:12:55;4.90;99.90
16814;DHT22;8524;57.650;11.926;2023-05-08T00:15:22;4.90;99.90
16814;DHT22;8524;57.650;11.926;2023-05-08T00:17:49;4.90;99.90
16814;DHT22;8524;57.650;11.926;2023-05-08T00:20:16;4.90;99.90
16814;DHT22;8524;57.650;11.926;2023-05-08T00:22:43;4.80;99.90
16814;DHT22;8524;57.650;11.926;2023-05-08T00:25:10;4.80;99.90
16814;DHT22;8524;57.650;11.926;2023-05-08T00:27:39;4.70;99.90
16814;DHT22;8524;57.650;11.926;2023-05-08T00:30:07;4.70;99.90
16814;DHT22;8524;57.650;11.926;2023-05-08T00:32:34;4.70;99.90
16814;DHT22;8524;57.650;11.926;2023-05-08T00:35:01;4.80;99.90
16814;DHT22;8524;57.650;11.926;2023-05-08T00:37:28;4.70;99.90
16814;DHT22;8524;57.650;11.926;2023-05-08T00:39:55;4.70;99.90
16814;DHT22;8524;57.650;11.926;2023-05-08T00:42:22;4.70;99.90
16814;DHT22;8524;57.650;11.926;2023-05-08T00:44:51;4.80;99.90
16814;DHT22;8524;57.650;11.926;2023-05-08T00:47:19;4.80;99.90
16814;DHT22;8524;57.650;11.926;2023-05-08T00:49:47;4.80;99.90
16814;DHT22;8524;57.650;11.926;2023-05-08T00:52:15;4.90;99.90
16814;DHT22;8524;57.650;11.926;2023-05-08T00:54:43;4.80;99.90
16814;DHT22;8524;57.650;11.926;2023-05-08T00:57:11;4.80;99.90
16814;DHT22;8524;57.650;11.926;2023-05-08T00:59:39;4.70;99.90
16814;DHT22;8524;57.650;11.926;2023-05-08T01:02:08;4.70;99.90
16814;DHT22;8524;57.650;11.926;2023-05-08T01:04:36;4.60;99.90
16814;DHT22;8524;57.650;11.926;2023-05-08T01:07:03;4.50;99.90
16814;DHT22;8524;57.650;11.926;2023-05-08T01:09:30;4.50;99.90
16814;DHT22;8524;57.650;11.926;2023-05-08T01:12:05;4.50;99.90
16814;DHT22;8524;57.650;11.926;2023-05-08T01:14:41;4.50;99.90
16814;DHT22;8524;57.650;11.926;2023-05-08T01:17:21;4.60;99.90
16814;DHT22;8524;57.650;11.926;2023-05-08T01:20:04;4.60;99.90
16814;DHT22;8524;57.650;11.926;2023-05-08T01:23:07;4.50;99.90
16814;DHT22;8524;57.650;11.926;2023-05-08T01:26:04;4.40;99.90
16814;DHT22;8524;57.650;11.926;2023-05-08T01:31:50;4.20;99.90
16814;DHT22;8524;57.650;11.926;2023-05-08T01:34:22;4.20;99.90
16814;DHT22;8524;57.650;11.926;2023-05-08T01:36:53;4.20;99.90
16814;DHT22;8524;57.650;11.926;2023-05-08T01:39:26;4.20;99.90
16814;DHT22;8524;57.650;11.926;2023-05-08T01:41:59;4.30;99.90
16814;DHT22;8524;57.650;11.926;2023-05-08T01:44:34;4.30;99.90
16814;DHT22;8524;57.650;11.926;2023-05-08T01:47:05;4.20;99.90
16814;DHT22;8524;57.650;11.926;2023-05-08T01:49:39;4.20;99.90
16814;DHT22;8524;57.650;11.926;2023-05-08T01:52:17;4.10;99.90
16814;DHT22;8524;57.650;11.926;2023-05-08T01:54:56;4.00;99.90
16814;DHT22;8524;57.650;11.926;2023-05-08T01:57:27;3.90;99.90
16814;DHT22;8524;57.650;11.926;2023-05-08T01:59:57;3.90;99.90
16814;DHT22;8524;57.650;11.926;2023-05-08T02:02:26;3.90;99.90
16814;DHT22;8524;57.650;11.926;2023-05-08T02:04:55;3.80;99.90
16814;DHT22;8524;57.650;11.926;2023-05-08T02:07:23;3.80;99.90
16814;DHT22;8524;57.650;11.926;2023-05-08T02:09:52;3.60;99.90
16814;DHT22;8524;57.650;11.926;2023-05-08T02:12:21;3.70;99.90
16814;DHT22;8524;57.650;11.926;2023-05-08T02:14:49;3.60;99.90
16814;DHT22;8524;57.650;11.926;2023-05-08T02:17:17;3.60;99.90
16814;DHT22;8524;57.650;11.926;2023-05-08T02:19:45;3.60;99.90
16814;DHT22;8524;57.650;11.926;2023-05-08T02:22:16;3.60;99.90
16814;DHT22;8524;57.650;11.926;2023-05-08T02:24:44;3.50;99.90
16814;DHT22;8524;57.650;11.926;2023-05-08T02:27:12;3.50;99.90
16814;DHT22;8524;57.650;11.926;2023-05-08T02:29:41;3.40;99.90
16814;DHT22;8524;57.650;11.926;2023-05-08T02:32:08;3.40;99.90
16814;DHT22;8524;57.650;11.926;2023-05-08T02:34:37;3.30;99.90
16814;DHT22;8524;57.650;11.926;2023-05-08T02:37:05;3.30;99.90
16814;DHT22;8524;57.650;11.926;2023-05-08T02:39:34;3.30;99.90
16814;DHT22;8524;57.650;11.926;2023-05-08T02:42:02;3.30;99.90
16814;DHT22;8524;57.650;11.926;2023-05-08T02:44:29;3.30;99.90
16814;DHT22;8524;57.650;11.926;2023-05-08T02:47:03;3.30;99.90
16814;DHT22;8524;57.650;11.926;2023-05-08T02:49:37;3.20;99.90
16814;DHT22;8524;57.650;11.926;2023-05-08T02:52:12;3.20;99.90
16814;DHT22;8524;57.650;11.926;2023-05-08T02:54:49;3.20;99.90
16814;DHT22;8524;57.650;11.926;2023-05-08T02:57:21;3.10;99.90
16814;DHT22;8524;57.650;11.926;2023-05-08T02:59:54;3.30;99.90
16814;DHT22;8524;57.650;11.926;2023-05-08T03:02:30;3.30;99.90
16814;DHT22;8524;57.650;11.926;2023-05-08T03:05:01;3.30;99.90
16814;DHT22;8524;57.650;11.926;2023-05-08T03:07:30;3.40;99.90
16814;DHT22;8524;57.650;11.926;2023-05-08T03:10:02;3.40;99.90
16814;DHT22;8524;57.650;11.926;2023-05-08T03:12:35;3.40;99.90
16814;DHT22;8524;57.650;11.926;2023-05-08T03:15:13;3.60;99.90
16814;DHT22;8524;57.650;11.926;2023-05-08T03:17:42;3.60;99.90
16814;DHT22;8524;57.650;11.926;2023-05-08T03:20:14;3.60;99.90
16814;DHT22;8524;57.650;11.926;2023-05-08T03:22:43;3.70;99.90
16814;DHT22;8524;57.650;11.926;2023-05-08T03:25:15;3.70;99.90
16814;DHT22;8524;57.650;11.926;2023-05-08T03:27:43;3.70;99.90
16814;DHT22;8524;57.650;11.926;2023-05-08T03:30:11;3.70;99.90
16814;DHT22;8524;57.650;11.926;2023-05-08T03:32:39;3.70;99.90
16814;DHT22;8524;57.650;11.926;2023-05-08T03:35:08;3.70;99.90
16814;DHT22;8524;57.650;11.926;2023-05-08T03:37:36;3.70;99.90
16814;DHT22;8524;57.650;11.926;2023-05-08T03:40:05;3.80;99.90
16814;DHT22;8524;57.650;11.926;2023-05-08T03:42:35;3.90;99.90
16814;DHT22;8524;57.650;11.926;2023-05-08T03:45:03;4.00;99.90
16814;DHT22;8524;57.650;11.926;2023-05-08T03:47:34;4.10;99.90
16814;DHT22;8524;57.650;11.926;2023-05-08T03:50:02;4.20;99.90
16814;DHT22;8524;57.650;11.926;2023-05-08T03:52:31;4.50;99.90
16814;DHT22;8524;57.650;11.926;2023-05-08T03:54:58;4.60;99.90
16814;DHT22;8524;57.650;11.926;2023-05-08T03:57:29;4.70;99.90
16814;DHT22;8524;57.650;11.926;2023-05-08T04:00:02;5.00;99.90
16814;DHT22;8524;57.650;11.926;2023-05-08T04:02:37;5.30;99.90
16814;DHT22;8524;57.650;11.926;2023-05-08T04:05:13;5.50;99.90
16814;DHT22;8524;57.650;11.926;2023-05-08T04:07:49;5.70;99.90
16814;DHT22;8524;57.650;11.926;2023-05-08T04:10:23;6.00;99.90
16814;DHT22;8524;57.650;11.926;2023-05-08T04:13:00;6.40;99.90
16814;DHT22;8524;57.650;11.926;2023-05-08T04:15:35;6.70;99.90
16814;DHT22;8524;57.650;11.926;2023-05-08T04:18:05;7.00;99.90
16814;DHT22;8524;57.650;11.926;2023-05-08T04:20:34;7.00;99.90
16814;DHT22;8524;57.650;11.926;2023-05-08T04:23:05;7.00;99.90
16814;DHT22;8524;57.650;11.926;2023-05-08T04:25:35;7.10;99.90
16814;DHT22;8524;57.650;11.926;2023-05-08T04:28:03;7.10;99.90
16814;DHT22;8524;57.650;11.926;2023-05-08T04:30:32;7.00;99.90
16814;DHT22;8524;57.650;11.926;2023-05-08T04:33:01;7.20;99.90
16814;DHT22;8524;57.650;11.926;2023-05-08T04:35:29;7.20;99.90
16814;DHT22;8524;57.650;11.926;2023-05-08T04:37:57;7.20;99.90
16814;DHT22;8524;57.650;11.926;2023-05-08T04:40:26;7.10;99.90
16814;DHT22;8524;57.650;11.926;2023-05-08T04:42:53;7.30;99.90
16814;DHT22;8524;57.650;11.926;2023-05-08T04:45:20;7.30;99.90
16814;DHT22;8524;57.650;11.926;2023-05-08T04:47:49;7.30;99.90
16814;DHT22;8524;57.650;11.926;2023-05-08T04:50:16;7.40;99.90
16814;DHT22;8524;57.650;11.926;2023-05-08T04:52:43;7.60;99.90
16814;DHT22;8524;57.650;11.926;2023-05-08T04:55:10;7.60;99.90
16814;DHT22;8524;57.650;11.926;2023-05-08T04:57:37;7.70;99.90
16814;DHT22;8524;57.650;11.926;2023-05-08T05:00:05;7.70;99.90
16814;DHT22;8524;57.650;11.926;2023-05-08T05:02:32;7.90;99.90
16814;DHT22;8524;57.650;11.926;2023-05-08T05:05:01;8.20;99.90
16814;DHT22;8524;57.650;11.926;2023-05-08T05:07:28;8.20;99.90
16814;DHT22;8524;57.650;11.926;2023-05-08T05:09:55;8.20;99.90
16814;DHT22;8524;57.650;11.926;2023-05-08T05:12:23;8.40;99.90
16814;DHT22;8524;57.650;11.926;2023-05-08T05:14:50;8.40;99.90
16814;DHT22;8524;57.650;11.926;2023-05-08T05:17:17;8.40;99.90
16814;DHT22;8524;57.650;11.926;2023-05-08T05:19:44;8.60;99.90
16814;DHT22;8524;57.650;11.926;2023-05-08T05:22:13;8.80;99.90
16814;DHT22;8524;57.650;11.926;2023-05-08T05:24:40;9.00;99.90
16814;DHT22;8524;57.650;11.926;2023-05-08T05:27:07;9.10;99.90
16814;DHT22;8524;57.650;11.926;2023-05-08T05:29:34;9.10;99.90
16814;DHT22;8524;57.650;11.926;2023-05-08T05:32:01;9.30;99.90
16814;DHT22;8524;57.650;11.926;2023-05-08T05:34:28;9.50;99.90
16814;DHT22;8524;57.650;11.926;2023-05-08T05:36:56;9.60;99.90
16814;DHT22;8524;57.650;11.926;2023-05-08T05:39:24;9.60;99.90
16814;DHT22;8524;57.650;11.926;2023-05-08T05:41:51;9.70;99.90
16814;DHT22;8524;57.650;11.926;2023-05-08T05:44:18;9.90;99.90
16814;DHT22;8524;57.650;11.926;2023-05-08T05:46:45;10.20;99.90
16814;DHT22;8524;57.650;11.926;2023-05-08T05:49:12;10.00;99.90
16814;DHT22;8524;57.650;11.926;2023-05-08T05:51:40;9.90;99.90
16814;DHT22;8524;57.650;11.926;2023-05-08T05:54:07;10.30;99.90
16814;DHT22;8524;57.650;11.926;2023-05-08T05:56:35;10.60;99.90
16814;DHT22;8524;57.650;11.926;2023-05-08T05:59:03;10.80;99.90
16814;DHT22;8524;57.650;11.926;2023-05-08T06:01:30;10.90;99.90
16814;DHT22;8524;57.650;11.926;2023-05-08T06:03:57;11.00;99.90
16814;DHT22;8524;57.650;11.926;2023-05-08T06:06:24;11.10;99.90
16814;DHT22;8524;57.650;11.926;2023-05-08T06:08:51;11.10;99.90
16814;DHT22;8524;57.650;11.926;2023-05-08T06:11:18;11.10;99.90
16814;DHT22;8524;57.650;11.926;2023-05-08T06:13:48;11.20;99.90
16814;DHT22;8524;57.650;11.926;2023-05-08T06:16:15;11.70;99.90
16814;DHT22;8524;57.650;11.926;2023-05-08T06:18:45;11.70;99.40
16814;DHT22;8524;57.650;11.926;2023-05-08T06:21:12;12.10;99.90
16814;DHT22;8524;57.650;11.926;2023-05-08T06:23:39;12.40;98.60
16814;DHT22;8524;57.650;11.926;2023-05-08T06:26:07;12.10;95.20
16814;DHT22;8524;57.650;11.926;2023-05-08T06:28:34;12.60;99.50
16814;DHT22;8524;57.650;11.926;2023-05-08T06:31:02;12.60;95.70
16814;DHT22;8524;57.650;11.926;2023-05-08T06:33:29;13.20;94.60
16814;DHT22;8524;57.650;11.926;2023-05-08T06:35:57;13.40;92.10
16814;DHT22;8524;57.650;11.926;2023-05-08T06:38:24;13.10;95.80
16814;DHT22;8524;57.650;11.926;2023-05-08T06:40:51;13.40;94.40
16814;DHT22;8524;57.650;11.926;2023-05-08T06:43:20;13.70;91.80
16814;DHT22;8524;57.650;11.926;2023-05-08T06:45:47;13.80;90.60
16814;DHT22;8524;57.650;11.926;2023-05-08T06:48:16;13.50;90.00
16814;DHT22;8524;57.650;11.926;2023-05-08T06:50:42;13.60;91.90
16814;DHT22;8524;57.650;11.926;2023-05-08T06:53:11;13.70;92.80
16814;DHT22;8524;57.650;11.926;2023-05-08T06:55:41;13.70;91.60
16814;DHT22;8524;57.650;11.926;2023-05-08T06:58:08;13.70;88.10
16814;DHT22;8524;57.650;11.926;2023-05-08T07:00:35;13.90;90.30
16814;DHT22;8524;57.650;11.926;2023-05-08T07:03:02;13.80;89.90
16814;DHT22;8524;57.650;11.926;2023-05-08T07:05:30;14.00;92.30
16814;DHT22;8524;57.650;11.926;2023-05-08T07:07:57;14.00;87.60
16814;DHT22;8524;57.650;11.926;2023-05-08T07:10:24;14.30;89.10
16814;DHT22;8524;57.650;11.926;2023-05-08T07:12:52;14.40;90.40
16814;DHT22;8524;57.650;11.926;2023-05-08T07:15:19;14.90;90.60
16814;DHT22;8524;57.650;11.926;2023-05-08T07:17:46;15.40;86.70
16814;DHT22;8524;57.650;11.926;2023-05-08T07:20:13;15.50;89.60
16814;DHT22;8524;57.650;11.926;2023-05-08T07:22:42;15.70;88.30
16814;DHT22;8524;57.650;11.926;2023-05-08T07:25:09;15.50;83.80
16814;DHT22;8524;57.650;11.926;2023-05-08T07:27:37;15.90;85.20
16814;DHT22;8524;57.650;11.926;2023-05-08T07:30:05;16.30;85.30
16814;DHT22;8524;57.650;11.926;2023-05-08T07:32:32;16.20;79.70
16814;DHT22;8524;57.650;11.926;2023-05-08T07:35:00;16.30;84.90
16814;DHT22;8524;57.650;11.926;2023-05-08T07:37:27;16.40;84.90
16814;DHT22;8524;57.650;11.926;2023-05-08T07:39:56;16.30;85.20
16814;DHT22;8524;57.650;11.926;2023-05-08T07:42:23;16.50;83.30
16814;DHT22;8524;57.650;11.926;2023-05-08T07:44:50;16.70;82.50
16814;DHT22;8524;57.650;11.926;2023-05-08T07:47:17;17.00;81.50
16814;DHT22;8524;57.650;11.926;2023-05-08T07:49:44;17.10;80.00
16814;DHT22;8524;57.650;11.926;2023-05-08T07:52:11;17.10;81.10
16814;DHT22;8524;57.650;11.926;2023-05-08T07:54:38;17.00;78.40
16814;DHT22;8524;57.650;11.926;2023-05-08T07:57:07;17.00;76.30
16814;DHT22;8524;57.650;11.926;2023-05-08T07:59:34;16.90;79.20
16814;DHT22;8524;57.650;11.926;2023-05-08T08:02:01;16.90;75.80
16814;DHT22;8524;57.650;11.926;2023-05-08T08:04:28;16.90;77.80
16814;DHT22;8524;57.650;11.926;2023-05-08T08:06:55;16.90;81.40
16814;DHT22;8524;57.650;11.926;2023-05-08T08:09:22;17.10;83.20
16814;DHT22;8524;57.650;11.926;2023-05-08T08:11:49;16.90;80.20
16814;DHT22;8524;57.650;11.926;2023-05-08T08:14:17;16.90;84.10
16814;DHT22;8524;57.650;11.926;2023-05-08T08:16:44;17.00;81.80
16814;DHT22;8524;57.650;11.926;2023-05-08T08:19:11;16.90;83.40
16814;DHT22;8524;57.650;11.926;2023-05-08T08:21:41;17.10;86.00
16814;DHT22;8524;57.650;11.926;2023-05-08T08:24:09;17.10;84.60
16814;DHT22;8524;57.650;11.926;2023-05-08T08:26:36;17.00;83.80
16814;DHT22;8524;57.650;11.926;2023-05-08T08:29:05;16.90;90.10
16814;DHT22;8524;57.650;11.926;2023-05-08T08:31:33;16.90;88.10
16814;DHT22;8524;57.650;11.926;2023-05-08T08:34:00;16.80;85.20
16814;DHT22;8524;57.650;11.926;2023-05-08T08:36:27;16.70;90.20
16814;DHT22;8524;57.650;11.926;2023-05-08T08:38:54;16.70;92.30
16814;DHT22;8524;57.650;11.926;2023-05-08T08:41:21;16.70;91.70
16814;DHT22;8524;57.650;11.926;2023-05-08T08:43:49;16.80;89.40
16814;DHT22;8524;57.650;11.926;2023-05-08T08:46:19;16.80;90.90
16814;DHT22;8524;57.650;11.926;2023-05-08T08:48:53;16.80;91.70
16814;DHT22;8524;57.650;11.926;2023-05-08T08:51:24;16.70;91.10
16814;DHT22;8524;57.650;11.926;2023-05-08T08:54:01;16.50;93.90
16814;DHT22;8524;57.650;11.926;2023-05-08T08:56:30;16.60;93.70
16814;DHT22;8524;57.650;11.926;2023-05-08T08:58:59;16.60;94.70
16814;DHT22;8524;57.650;11.926;2023-05-08T09:01:27;16.70;97.50
16814;DHT22;8524;57.650;11.926;2023-05-08T09:03:58;16.80;95.00
16814;DHT22;8524;57.650;11.926;2023-05-08T09:06:27;16.80;95.40
16814;DHT22;8524;57.650;11.926;2023-05-08T09:08:54;16.80;96.20
16814;DHT22;8524;57.650;11.926;2023-05-08T09:11:22;17.00;96.90
16814;DHT22;8524;57.650;11.926;2023-05-08T09:13:49;17.10;97.80
16814;DHT22;8524;57.650;11.926;2023-05-08T09:16:17;17.00;96.80
16814;DHT22;8524;57.650;11.926;2023-05-08T09:18:44;17.20;96.80
16814;DHT22;8524;57.650;11.926;2023-05-08T09:21:12;17.10;97.90
16814;DHT22;8524;57.650;11.926;2023-05-08T09:23:54;17.30;98.00
16814;DHT22;8524;57.650;11.926;2023-05-08T09:26:29;17.30;96.50
16814;DHT22;8524;57.650;11.926;2023-05-08T09:29:13;17.40;96.40
16814;DHT22;8524;57.650;11.926;2023-05-08T09:31:42;17.50;97.20
16814;DHT22;8524;57.650;11.926;2023-05-08T09:34:10;17.60;98.50
16814;DHT22;8524;57.650;11.926;2023-05-08T09:36:39;17.60;96.40
16814;DHT22;8524;57.650;11.926;2023-05-08T09:39:09;17.60;99.00
16814;DHT22;8524;57.650;11.926;2023-05-08T09:41:37;17.50;96.70
16814;DHT22;8524;57.650;11.926;2023-05-08T09:44:06;17.20;99.90
16814;DHT22;8524;57.650;11.926;2023-05-08T09:46:33;17.30;99.20
16814;DHT22;8524;57.650;11.926;2023-05-08T09:49:02;17.40;99.90
16814;DHT22;8524;57.650;11.926;2023-05-08T09:51:30;17.40;99.90
16814;DHT22;8524;57.650;11.926;2023-05-08T09:53:59;17.50;99.90
16814;DHT22;8524;57.650;11.926;2023-05-08T09:56:35;17.60;99.50
16814;DHT22;8524;57.650;11.926;2023-05-08T09:59:04;17.90;97.60
16814;DHT22;8524;57.650;11.926;2023-05-08T10:01:47;18.10;98.60
16814;DHT22;8524;57.650;11.926;2023-05-08T10:04:14;18.10;97.80
16814;DHT22;8524;57.650;11.926;2023-05-08T10:06:42;18.00;95.40
16814;DHT22;8524;57.650;11.926;2023-05-08T10:09:12;18.20;96.60
16814;DHT22;8524;57.650;11.926;2023-05-08T10:11:40;18.10;97.30
16814;DHT22;8524;57.650;11.926;2023-05-08T10:14:13;18.00;95.50
16814;DHT22;8524;57.650;11.926;2023-05-08T10:16:43;17.90;97.70
16814;DHT22;8524;57.650;11.926;2023-05-08T10:19:12;17.80;96.50
16814;DHT22;8524;57.650;11.926;2023-05-08T10:21:41;17.90;95.40
16814;DHT22;8524;57.650;11.926;2023-05-08T10:24:14;17.90;95.00
16814;DHT22;8524;57.650;11.926;2023-05-08T10:26:43;17.50;94.40
16814;DHT22;8524;57.650;11.926;2023-05-08T10:29:17;17.50;96.10
16814;DHT22;8524;57.650;11.926;2023-05-08T10:31:49;17.80;95.90
16814;DHT22;8524;57.650;11.926;2023-05-08T10:34:21;17.90;94.00
16814;DHT22;8524;57.650;11.926;2023-05-08T10:36:50;17.80;94.50
16814;DHT22;8524;57.650;11.926;2023-05-08T10:39:20;17.70;92.20
16814;DHT22;8524;57.650;11.926;2023-05-08T10:41:48;17.70;93.50
16814;DHT22;8524;57.650;11.926;2023-05-08T10:44:16;17.70;95.30
16814;DHT22;8524;57.650;11.926;2023-05-08T10:46:50;17.80;95.30
16814;DHT22;8524;57.650;11.926;2023-05-08T10:49:24;17.90;92.50
16814;DHT22;8524;57.650;11.926;2023-05-08T10:51:57;17.70;92.00
16814;DHT22;8524;57.650;11.926;2023-05-08T10:54:37;17.70;93.30
16814;DHT22;8524;57.650;11.926;2023-05-08T10:57:09;17.80;91.30
16814;DHT22;8524;57.650;11.926;2023-05-08T10:59:36;17.60;93.70
16814;DHT22;8524;57.650;11.926;2023-05-08T11:02:04;17.50;91.10
16814;DHT22;8524;57.650;11.926;2023-05-08T11:04:33;17.60;89.50
16814;DHT22;8524;57.650;11.926;2023-05-08T11:07:00;17.40;90.50
16814;DHT22;8524;57.650;11.926;2023-05-08T11:09:44;17.30;88.60
16814;DHT22;8524;57.650;11.926;2023-05-08T11:12:20;17.40;88.40
16814;DHT22;8524;57.650;11.926;2023-05-08T11:15:00;17.20;89.90
16814;DHT22;8524;57.650;11.926;2023-05-08T11:17:28;17.20;89.60
16814;DHT22;8524;57.650;11.926;2023-05-08T11:19:57;17.30;89.80
16814;DHT22;8524;57.650;11.926;2023-05-08T11:22:26;17.60;90.80
16814;DHT22;8524;57.650;11.926;2023-05-08T11:25:00;17.80;85.40
16814;DHT22;8524;57.650;11.926;2023-05-08T11:30:36;17.80;83.50
16814;DHT22;8524;57.650;11.926;2023-05-08T11:33:16;17.80;87.60
16814;DHT22;8524;57.650;11.926;2023-05-08T11:36:10;17.70;83.40
16814;DHT22;8524;57.650;11.926;2023-05-08T11:38:38;17.40;83.50
16814;DHT22;8524;57.650;11.926;2023-05-08T11:41:08;17.40;78.20
16814;DHT22;8524;57.650;11.926;2023-05-08T11:46:49;17.20;78.70
16814;DHT22;8524;57.650;11.926;2023-05-08T11:49:18;17.50;77.40
16814;DHT22;8524;57.650;11.926;2023-05-08T11:51:47;17.90;79.30
16814;DHT22;8524;57.650;11.926;2023-05-08T11:54:16;18.00;83.30
16814;DHT22;8524;57.650;11.926;2023-05-08T11:56:49;18.30;74.30
16814;DHT22;8524;57.650;11.926;2023-05-08T11:59:17;18.20;67.50
16814;DHT22;8524;57.650;11.926;2023-05-08T12:01:46;18.20;67.10
16814;DHT22;8524;57.650;11.926;2023-05-08T12:04:14;18.20;66.60
16814;DHT22;8524;57.650;11.926;2023-05-08T12:06:41;17.80;67.60
16814;DHT22;8524;57.650;11.926;2023-05-08T12:09:12;17.60;68.10
16814;DHT22;8524;57.650;11.926;2023-05-08T12:11:40;17.90;68.30
16814;DHT22;8524;57.650;11.926;2023-05-08T12:14:10;17.90;75.80
16814;DHT22;8524;57.650;11.926;2023-05-08T12:16:38;17.90;69.30
16814;DHT22;8524;57.650;11.926;2023-05-08T12:19:08;18.00;72.40
16814;DHT22;8524;57.650;11.926;2023-05-08T12:21:36;17.80;68.10
16814;DHT22;8524;57.650;11.926;2023-05-08T12:24:05;17.90;71.60
16814;DHT22;8524;57.650;11.926;2023-05-08T12:26:34;17.80;72.30
16814;DHT22;8524;57.650;11.926;2023-05-08T12:29:04;17.80;71.30
16814;DHT22;8524;57.650;11.926;2023-05-08T12:31:33;17.90;69.40
16814;DHT22;8524;57.650;11.926;2023-05-08T12:34:01;18.10;75.20
16814;DHT22;8524;57.650;11.926;2023-05-08T12:36:33;18.30;73.40
16814;DHT22;8524;57.650;11.926;2023-05-08T12:39:11;18.10;71.70
16814;DHT22;8524;57.650;11.926;2023-05-08T12:41:45;18.20;72.20
16814;DHT22;8524;57.650;11.926;2023-05-08T12:44:17;18.30;74.40
16814;DHT22;8524;57.650;11.926;2023-05-08T12:46:50;18.20;74.20
16814;DHT22;8524;57.650;11.926;2023-05-08T12:49:28;18.20;72.10
16814;DHT22;8524;57.650;11.926;2023-05-08T12:52:03;18.30;75.80
16814;DHT22;8524;57.650;11.926;2023-05-08T12:54:32;18.40;75.80
16814;DHT22;8524;57.650;11.926;2023-05-08T12:56:59;18.40;78.40
16814;DHT22;8524;57.650;11.926;2023-05-08T12:59:31;18.70;79.20
16814;DHT22;8524;57.650;11.926;2023-05-08T13:01:59;19.00;76.20
16814;DHT22;8524;57.650;11.926;2023-05-08T13:04:27;19.00;69.50
16814;DHT22;8524;57.650;11.926;2023-05-08T13:06:55;18.90;70.60
16814;DHT22;8524;57.650;11.926;2023-05-08T13:09:22;18.90;72.80
16814;DHT22;8524;57.650;11.926;2023-05-08T13:11:49;19.00;74.90
16814;DHT22;8524;57.650;11.926;2023-05-08T13:14:16;18.90;69.90
16814;DHT22;8524;57.650;11.926;2023-05-08T13:16:44;18.90;73.50
16814;DHT22;8524;57.650;11.926;2023-05-08T13:19:14;18.70;71.00
16814;DHT22;8524;57.650;11.926;2023-05-08T13:21:41;18.40;73.60
16814;DHT22;8524;57.650;11.926;2023-05-08T13:24:11;18.50;73.70
16814;DHT22;8524;57.650;11.926;2023-05-08T13:26:38;18.30;74.60
16814;DHT22;8524;57.650;11.926;2023-05-08T13:29:05;18.40;77.50
16814;DHT22;8524;57.650;11.926;2023-05-08T13:31:33;18.60;75.70
16814;DHT22;8524;57.650;11.926;2023-05-08T13:34:00;18.60;74.50
16814;DHT22;8524;57.650;11.926;2023-05-08T13:36:28;18.70;77.30
16814;DHT22;8524;57.650;11.926;2023-05-08T13:38:56;18.90;73.80
16814;DHT22;8524;57.650;11.926;2023-05-08T13:41:23;18.90;75.80
16814;DHT22;8524;57.650;11.926;2023-05-08T13:43:50;18.90;75.40
16814;DHT22;8524;57.650;11.926;2023-05-08T13:46:17;18.80;74.10
16814;DHT22;8524;57.650;11.926;2023-05-08T13:48:44;18.60;73.30
16814;DHT22;8524;57.650;11.926;2023-05-08T13:51:11;18.60;77.20
16814;DHT22;8524;57.650;11.926;2023-05-08T13:53:39;18.40;73.50
16814;DHT22;8524;57.650;11.926;2023-05-08T13:56:07;18.50;75.20
16814;DHT22;8524;57.650;11.926;2023-05-08T13:58:34;18.40;74.20
16814;DHT22;8524;57.650;11.926;2023-05-08T14:01:01;18.20;75.70
16814;DHT22;8524;57.650;11.926;2023-05-08T14:03:28;18.20;75.00
16814;DHT22;8524;57.650;11.926;2023-05-08T14:05:55;18.10;75.20
16814;DHT22;8524;57.650;11.926;2023-05-08T14:08:22;17.80;75.00
16814;DHT22;8524;57.650;11.926;2023-05-08T14:10:51;17.80;76.10
16814;DHT22;8524;57.650;11.926;2023-05-08T14:13:18;17.60;73.90
16814;DHT22;8524;57.650;11.926;2023-05-08T14:15:45;17.50;77.40
16814;DHT22;8524;57.650;11.926;2023-05-08T14:18:12;17.50;78.40
16814;DHT22;8524;57.650;11.926;2023-05-08T14:20:39;17.40;76.80
16814;DHT22;8524;57.650;11.926;2023-05-08T14:23:06;17.20;81.10
16814;DHT22;8524;57.650;11.926;2023-05-08T14:25:33;17.30;79.20
16814;DHT22;8524;57.650;11.926;2023-05-08T14:28:02;17.20;79.90
16814;DHT22;8524;57.650;11.926;2023-05-08T14:30:29;17.30;82.60
16814;DHT22;8524;57.650;11.926;2023-05-08T14:32:56;17.20;82.50
16814;DHT22;8524;57.650;11.926;2023-05-08T14:35:22;17.10;81.30
16814;DHT22;8524;57.650;11.926;2023-05-08T14:37:50;17.00;85.10
16814;DHT22;8524;57.650;11.926;2023-05-08T14:40:17;17.10;85.10
16814;DHT22;8524;57.650;11.926;2023-05-08T14:42:44;17.20;85.20
16814;DHT22;8524;57.650;11.926;2023-05-08T14:45:13;17.20;84.60
16814;DHT22;8524;57.650;11.926;2023-05-08T14:47:39;17.20;85.20
16814;DHT22;8524;57.650;11.926;2023-05-08T14:50:07;17.20;85.60
16814;DHT22;8524;57.650;11.926;2023-05-08T14:52:34;17.20;84.60
16814;DHT22;8524;57.650;11.926;2023-05-08T14:55:01;17.30;85.20
16814;DHT22;8524;57.650;11.926;2023-05-08T14:57:28;17.30;84.50
16814;DHT22;8524;57.650;11.926;2023-05-08T14:59:55;17.10;87.00
16814;DHT22;8524;57.650;11.926;2023-05-08T15:02:23;17.10;87.40
16814;DHT22;8524;57.650;11.926;2023-05-08T15:04:51;17.00;89.80
16814;DHT22;8524;57.650;11.926;2023-05-08T15:07:18;17.10;89.60
16814;DHT22;8524;57.650;11.926;2023-05-08T15:09:45;17.00;89.70
16814;DHT22;8524;57.650;11.926;2023-05-08T15:12:13;16.90;90.60
16814;DHT22;8524;57.650;11.926;2023-05-08T15:14:40;16.80;91.80
16814;DHT22;8524;57.650;11.926;2023-05-08T15:17:07;16.90;93.20
16814;DHT22;8524;57.650;11.926;2023-05-08T15:19:35;16.90;93.10
16814;DHT22;8524;57.650;11.926;2023-05-08T15:22:02;17.00;93.00
16814;DHT22;8524;57.650;11.926;2023-05-08T15:24:30;17.20;92.10
16814;DHT22;8524;57.650;11.926;2023-05-08T15:26:57;17.10;91.90
16814;DHT22;8524;57.650;11.926;2023-05-08T15:29:24;17.10;91.90
16814;DHT22;8524;57.650;11.926;2023-05-08T15:31:51;17.20;91.50
16814;DHT22;8524;57.650;11.926;2023-05-08T15:34:18;17.30;91.20
16814;DHT22;8524;57.650;11.926;2023-05-08T15:36:47;17.30;91.40
16814;DHT22;8524;57.650;11.926;2023-05-08T15:39:14;17.50;91.10
16814;DHT22;8524;57.650;11.926;2023-05-08T15:41:41;17.60;90.00
16814;DHT22;8524;57.650;11.926;2023-05-08T15:44:08;17.70;89.00
16814;DHT22;8524;57.650;11.926;2023-05-08T15:46:35;17.60;86.40
16814;DHT22;8524;57.650;11.926;2023-05-08T15:49:02;17.60;87.40
16814;DHT22;8524;57.650;11.926;2023-05-08T15:51:29;17.60;89.60
16814;DHT22;8524;57.650;11.926;2023-05-08T15:53:58;17.60;84.00
16814;DHT22;8524;57.650;11.926;2023-05-08T15:56:25;17.60;87.40
16814;DHT22;8524;57.650;11.926;2023-05-08T15:58:52;17.60;85.10